Terminal Aerodrome Forecast
Issued by NWS Upton, NY

Home | Current Version | Previous Version | Text Only | Print | Product List | Glossary On
Versions: 1 2 3 4 5 6 7 8 9 10 11 12 13 14 15 16 17 18 19 20 21 22 23 24 25 26 27 28 29
274
FTUS41 KOKX 250537
TAFEWR
TAF
KEWR 250537Z 2506/2612 22008KT P6SM SCT150 BKN250
     FM251000 22005KT P6SM VCTS SCT060CB BKN120
     FM251300 24008KT 5SM HZ BKN040 BKN070
     FM252000 26010KT P6SM BKN070 BKN250 PROB30 2520/2602 4SM TSRA
      BKN040CB
     FM260200 25007KT P6SM SCT100 BKN250
     FM260900 30006KT P6SM SCT250=

USA.gov is the U.S. government's official web portal to all federal, state and local government web resources and services.